Time;durP1;ratioP1;P1;durP2;ratioP2;P2;SDS_P1;SDS_P2;PMS_P1;PMS_P2;Temp;Humidity;BMP_temperature;BMP_pressure;BME280_temperature;BME280_humidity;BME280_pressure;Samples;Min_cycle;Max_cycle;Signal;HPM_P1;HPM_P2
2022/05/11 00:01:39;;;;;;;6.40;2.13;;;16.90;51.60;;;;;;4984449;28;20582;-74
2022/05/11 00:04:08;;;;;;;5.03;1.63;;;16.90;51.60;;;;;;4936225;28;20088;-75
2022/05/11 00:06:35;;;;;;;6.03;1.83;;;16.90;51.60;;;;;;4983779;28;20065;-74
2022/05/11 00:09:03;;;;;;;3.30;1.27;;;16.90;51.70;;;;;;4953717;28;20785;-75
2022/05/11 00:11:30;;;;;;;5.38;1.05;;;16.90;51.70;;;;;;4950400;28;20066;-76
2022/05/11 00:13:57;;;;;;;5.78;1.35;;;16.90;51.70;;;;;;4985383;28;20026;-75
2022/05/11 00:16:25;;;;;;;7.57;1.90;;;16.90;51.80;;;;;;4980907;28;20077;-75
2022/05/11 00:18:51;;;;;;;4.28;1.48;;;16.90;51.80;;;;;;4979646;28;20027;-75
2022/05/11 00:21:17;;;;;;;7.18;1.85;;;16.90;51.80;;;;;;4994499;28;20034;-76
2022/05/11 00:23:43;;;;;;;4.88;1.30;;;16.90;51.80;;;;;;4985051;28;20438;-75
2022/05/11 00:26:09;;;;;;;4.18;1.45;;;16.90;51.90;;;;;;4958253;28;20177;-75
2022/05/11 00:28:35;;;;;;;5.18;1.60;;;16.90;51.90;;;;;;4993644;28;20442;-75
2022/05/11 00:31:02;;;;;;;5.35;1.65;;;16.80;52.00;;;;;;4976511;28;20036;-76
2022/05/11 00:33:28;;;;;;;5.10;1.30;;;16.90;52.00;;;;;;4989739;28;20435;-75
2022/05/11 00:35:54;;;;;;;5.70;1.40;;;16.90;52.00;;;;;;4983385;28;20043;-76
2022/05/11 00:38:23;;;;;;;4.38;1.15;;;16.80;51.90;;;;;;4988235;28;20041;-76
2022/05/11 00:40:56;;;;;;;4.35;1.33;;;16.80;51.90;;;;;;4988273;28;20034;-76
2022/05/11 00:43:37;;;;;;;5.40;1.60;;;16.80;52.00;;;;;;4971559;28;20041;-76
2022/05/11 00:46:26;;;;;;;4.50;1.17;;;16.80;52.10;;;;;;4992237;28;20396;-75
2022/05/11 00:51:45;;;;;;;5.22;1.13;;;16.70;51.90;;;;;;4987566;28;20030;-75
2022/05/11 00:54:14;;;;;;;7.43;2.13;;;16.70;51.90;;;;;;4987884;28;20030;-76
2022/05/11 00:56:45;;;;;;;6.85;2.25;;;16.70;52.00;;;;;;4991786;28;20039;-75
2022/05/11 00:59:20;;;;;;;5.90;1.40;;;16.70;52.10;;;;;;4982006;28;20137;-75
2022/05/11 01:01:47;;;;;;;6.60;1.33;;;16.70;52.20;;;;;;4991720;28;20046;-75
2022/05/11 01:04:16;;;;;;;4.35;1.52;;;16.70;52.20;;;;;;4982462;28;20100;-73
2022/05/11 01:06:43;;;;;;;4.25;0.93;;;16.60;52.00;;;;;;4982399;28;20125;-74
2022/05/11 01:09:10;;;;;;;6.32;1.80;;;16.70;52.30;;;;;;4989157;28;20034;-74
2022/05/11 01:11:39;;;;;;;4.32;1.83;;;16.70;52.40;;;;;;4981424;28;20037;-74
2022/05/11 01:14:07;;;;;;;3.05;1.25;;;16.70;52.40;;;;;;5000202;28;20037;-74
2022/05/11 01:16:35;;;;;;;5.68;1.35;;;16.60;52.20;;;;;;4990143;28;20093;-74
2022/05/11 01:19:04;;;;;;;6.00;1.42;;;16.60;52.30;;;;;;4988674;28;20129;-74
2022/05/11 01:21:41;;;;;;;5.35;1.77;;;16.60;52.40;;;;;;4987358;28;20042;-74
2022/05/11 01:24:27;;;;;;;3.15;1.70;;;16.60;52.50;;;;;;4985957;28;20056;-74
2022/05/11 01:26:55;;;;;;;3.85;1.38;;;16.60;52.50;;;;;;4991321;28;20046;-74
2022/05/11 01:29:21;;;;;;;7.22;2.78;;;16.60;52.50;;;;;;4977573;28;20380;-74
2022/05/11 01:31:46;;;;;;;5.32;1.67;;;16.60;52.50;;;;;;4971105;28;20079;-74
2022/05/11 01:34:19;;;;;;;2.85;0.73;;;16.60;52.60;;;;;;4994982;28;20422;-74
2022/05/11 01:36:46;;;;;;;4.15;1.48;;;16.50;53.00;;;;;;4978871;28;20477;-74
2022/05/11 01:39:12;;;;;;;5.93;1.67;;;16.50;52.50;;;;;;4998510;28;20555;-74
2022/05/11 01:41:44;;;;;;;6.95;1.83;;;16.50;52.50;;;;;;4995313;28;20033;-73
2022/05/11 01:44:13;;;;;;;4.28;1.55;;;16.50;52.60;;;;;;4990555;28;20030;-74
2022/05/11 01:46:43;;;;;;;7.60;1.40;;;16.50;52.70;;;;;;4989690;28;20414;-74
2022/05/11 01:49:09;;;;;;;3.45;1.13;;;16.50;52.70;;;;;;4991015;28;20030;-74
2022/05/11 01:51:34;;;;;;;3.05;1.00;;;16.50;52.80;;;;;;4982481;28;20117;-73
2022/05/11 01:54:00;;;;;;;6.82;1.60;;;16.50;52.80;;;;;;4980214;28;20557;-73
2022/05/11 01:56:26;;;;;;;6.25;2.00;;;16.40;52.70;;;;;;4993662;28;20027;-74
2022/05/11 01:58:53;;;;;;;4.00;1.48;;;16.50;53.00;;;;;;4979801;28;20034;-74
2022/05/11 02:01:23;;;;;;;3.97;1.35;;;16.50;53.00;;;;;;4990656;28;20039;-73
2022/05/11 02:03:48;;;;;;;4.70;1.20;;;16.40;52.90;;;;;;4990132;28;20081;-74
2022/05/11 02:09:00;;;;;;;7.00;2.10;;;16.40;53.10;;;;;;4987641;28;20086;-74
2022/05/11 02:11:26;;;;;;;5.93;1.70;;;16.30;52.90;;;;;;4976462;28;20089;-74
2022/05/11 02:13:53;;;;;;;4.32;1.27;;;16.30;53.00;;;;;;4989537;28;20485;-73
2022/05/11 02:16:19;;;;;;;8.27;2.38;;;16.40;53.30;;;;;;4989246;28;20035;-73
2022/05/11 02:18:45;;;;;;;7.68;1.67;;;16.30;53.10;;;;;;4989831;28;20085;-75
2022/05/11 02:21:11;;;;;;;4.28;1.38;;;16.40;53.40;;;;;;4991278;28;20042;-76
2022/05/11 02:23:38;;;;;;;5.82;2.33;;;16.30;53.30;;;;;;4971457;28;20033;-75
2022/05/11 02:26:07;;;;;;;3.13;1.02;;;16.30;53.40;;;;;;4982538;28;20042;-76
2022/05/11 02:28:33;;;;;;;4.18;1.48;;;16.30;53.40;;;;;;4988822;28;20146;-77
2022/05/11 02:31:00;;;;;;;5.78;1.35;;;16.30;53.50;;;;;;4999392;28;20113;-77
2022/05/11 02:33:26;;;;;;;4.53;1.15;;;16.30;53.50;;;;;;4987446;28;20031;-76
2022/05/11 02:35:53;;;;;;;4.18;1.40;;;16.30;53.60;;;;;;4989457;28;20544;-76
2022/05/11 02:38:26;;;;;;;6.10;2.42;;;16.30;53.70;;;;;;4967584;28;20082;-76
2022/05/11 02:40:53;;;;;;;6.63;1.58;;;16.30;53.80;;;;;;4987421;28;20604;-75
2022/05/11 02:43:19;;;;;;;10.32;2.13;;;16.20;53.60;;;;;;4989098;28;20029;-76
2022/05/11 02:45:46;;;;;;;5.70;1.52;;;16.20;53.70;;;;;;4984847;28;20037;-75
2022/05/11 02:48:15;;;;;;;6.47;2.00;;;16.20;53.70;;;;;;4991177;28;20053;-76
2022/05/11 02:50:47;;;;;;;8.82;1.80;;;16.20;53.80;;;;;;4991880;28;20030;-76
2022/05/11 02:53:14;;;;;;;3.13;1.05;;;16.20;53.90;;;;;;4995328;28;20032;-76
2022/05/11 02:55:43;;;;;;;4.07;1.80;;;16.20;53.90;;;;;;4984119;28;20151;-75
2022/05/11 02:58:09;;;;;;;3.75;1.45;;;16.20;54.00;;;;;;4992750;28;20030;-75
2022/05/11 03:00:40;;;;;;;5.85;1.52;;;16.20;54.10;;;;;;4981708;28;20077;-73
2022/05/11 03:03:07;;;;;;;5.47;1.48;;;16.10;54.00;;;;;;4982156;28;20029;-74
2022/05/11 03:05:34;;;;;;;6.45;1.50;;;16.10;54.10;;;;;;4990347;28;20393;-74
2022/05/11 03:08:00;;;;;;;5.40;1.38;;;16.10;54.20;;;;;;4982969;28;20087;-75
2022/05/11 03:10:26;;;;;;;6.85;1.50;;;16.10;54.30;;;;;;4989592;28;20734;-75
2022/05/11 03:12:53;;;;;;;5.15;2.05;;;16.00;54.20;;;;;;4987245;28;20034;-76
2022/05/11 03:15:19;;;;;;;6.97;1.40;;;16.10;54.50;;;;;;4986380;28;20074;-75
2022/05/11 03:17:45;;;;;;;6.90;1.90;;;16.00;54.50;;;;;;4983503;28;20104;-76
2022/05/11 03:20:11;;;;;;;3.63;1.00;;;16.00;54.50;;;;;;4986643;28;20505;-75
2022/05/11 03:22:38;;;;;;;7.65;1.50;;;16.00;54.70;;;;;;4984228;28;20021;-74
2022/05/11 03:25:05;;;;;;;7.00;1.33;;;16.00;54.80;;;;;;4983393;28;20065;-74
2022/05/11 03:27:31;;;;;;;10.77;3.75;;;16.00;54.90;;;;;;4985998;28;20600;-74
2022/05/11 03:29:57;;;;;;;5.93;1.25;;;15.90;54.70;;;;;;4977560;28;20118;-75
2022/05/11 03:35:10;;;;;;;6.32;1.77;;;15.90;54.90;;;;;;4990792;28;20392;-74
2022/05/11 03:37:38;;;;;;;4.40;1.48;;;15.90;55.00;;;;;;4987267;28;20034;-75
2022/05/11 03:40:07;;;;;;;4.80;1.35;;;15.90;55.10;;;;;;4985103;28;20038;-75
2022/05/11 03:42:35;;;;;;;6.38;2.33;;;15.90;55.10;;;;;;4985426;28;20026;-75
2022/05/11 03:45:10;;;;;;;6.53;2.35;;;15.90;55.20;;;;;;4983306;28;20041;-75
2022/05/11 03:47:36;;;;;;;5.63;1.35;;;15.90;55.40;;;;;;4985777;28;20092;-75
2022/05/11 03:50:03;;;;;;;6.40;1.65;;;15.90;55.40;;;;;;4987436;28;20030;-75
2022/05/11 03:52:29;;;;;;;4.72;1.65;;;15.80;55.30;;;;;;4990327;28;20030;-75
2022/05/11 03:54:55;;;;;;;6.90;1.52;;;15.80;55.40;;;;;;4981745;28;20030;-75
2022/05/11 03:57:21;;;;;;;7.65;1.85;;;15.80;55.40;;;;;;4982774;28;20033;-75
2022/05/11 03:59:47;;;;;;;4.30;1.00;;;15.80;55.60;;;;;;4986852;28;20077;-75
2022/05/11 04:02:13;;;;;;;5.18;1.40;;;15.80;55.60;;;;;;5000749;28;20023;-75
2022/05/11 04:04:39;;;;;;;5.32;1.30;;;15.90;55.90;;;;;;4987049;28;20089;-74
2022/05/11 04:07:04;;;;;;;4.68;1.13;;;15.80;55.70;;;;;;4976442;28;20151;-76
2022/05/11 04:09:30;;;;;;;4.10;1.42;;;15.80;55.80;;;;;;4985815;28;20062;-76
2022/05/11 04:11:57;;;;;;;4.28;1.70;;;15.80;55.90;;;;;;4990477;28;20041;-75
2022/05/11 04:14:23;;;;;;;5.40;1.55;;;15.80;56.00;;;;;;4989091;28;20105;-76
2022/05/11 04:16:58;;;;;;;4.93;1.30;;;15.80;56.10;;;;;;4987733;28;20506;-76
2022/05/11 04:19:28;;;;;;;6.60;1.17;;;15.80;56.30;;;;;;4987572;28;20039;-75
2022/05/11 04:21:54;;;;;;;6.88;1.80;;;15.70;56.00;;;;;;4975610;28;20693;-75
2022/05/11 04:24:20;;;;;;;4.38;1.35;;;15.70;56.10;;;;;;4995938;28;20100;-75
2022/05/11 04:26:45;;;;;;;6.82;2.13;;;15.70;56.10;;;;;;4979188;28;20034;-75
2022/05/11 04:29:11;;;;;;;3.72;1.45;;;15.70;56.30;;;;;;4987256;28;20026;-76
2022/05/11 04:31:37;;;;;;;4.07;1.83;;;15.60;56.20;;;;;;4987364;28;20547;-75
2022/05/11 04:34:03;;;;;;;4.47;1.30;;;15.70;56.40;;;;;;4971512;28;20034;-76
2022/05/11 04:36:30;;;;;;;4.70;1.27;;;15.60;56.30;;;;;;4983554;28;20050;-76
2022/05/11 04:38:57;;;;;;;2.88;1.27;;;15.60;56.40;;;;;;4967909;28;20362;-76
2022/05/11 04:41:30;;;;;;;6.95;1.65;;;15.60;56.50;;;;;;4985416;28;20042;-76
2022/05/11 04:43:56;;;;;;;7.40;1.60;;;15.60;56.60;;;;;;4996731;28;20110;-76
2022/05/11 04:46:22;;;;;;;3.92;1.77;;;15.60;56.60;;;;;;4985093;28;20051;-76
2022/05/11 04:48:48;;;;;;;4.53;1.55;;;15.60;56.70;;;;;;4976417;28;20042;-76
2022/05/11 04:51:13;;;;;;;6.88;2.15;;;15.60;56.80;;;;;;4988089;28;20791;-76
2022/05/11 04:53:39;;;;;;;5.25;1.88;;;15.60;56.90;;;;;;4984213;28;20197;-76
2022/05/11 04:56:05;;;;;;;5.13;1.48;;;15.60;56.90;;;;;;4984225;28;20023;-77
2022/05/11 04:58:31;;;;;;;6.03;1.30;;;15.60;57.00;;;;;;4981953;28;20030;-75
2022/05/11 05:00:57;;;;;;;3.67;1.17;;;15.60;57.00;;;;;;4976310;28;20042;-76
2022/05/11 05:03:23;;;;;;;5.03;1.33;;;15.60;57.00;;;;;;4980848;28;20509;-76
2022/05/11 05:05:50;;;;;;;7.10;2.38;;;15.60;57.10;;;;;;4993883;28;20178;-76
2022/05/11 05:08:16;;;;;;;6.57;2.22;;;15.60;57.20;;;;;;4986806;28;20030;-73
2022/05/11 05:10:42;;;;;;;6.45;1.88;;;15.60;57.20;;;;;;4985346;28;20030;-73
2022/05/11 05:13:11;;;;;;;4.47;1.38;;;15.60;57.30;;;;;;4984556;28;20030;-75
2022/05/11 05:15:39;;;;;;;4.85;1.52;;;15.60;57.30;;;;;;4969353;28;20120;-74
2022/05/11 05:18:06;;;;;;;4.35;1.52;;;15.60;57.40;;;;;;4991710;28;20037;-75
2022/05/11 05:20:33;;;;;;;6.63;1.90;;;15.60;57.40;;;;;;4977219;28;20038;-75
2022/05/11 05:22:59;;;;;;;3.20;1.20;;;15.60;57.40;;;;;;4970704;28;20026;-75
2022/05/11 05:25:25;;;;;;;3.60;1.27;;;15.60;57.50;;;;;;4991259;28;20555;-76
2022/05/11 05:27:53;;;;;;;3.00;1.23;;;15.60;57.50;;;;;;4989113;28;20670;-75
2022/05/11 05:33:04;;;;;;;7.53;2.25;;;15.60;57.60;;;;;;4990317;28;20034;-75
2022/05/11 05:35:30;;;;;;;5.28;1.48;;;15.60;57.60;;;;;;4978372;28;20464;-75
2022/05/11 05:37:56;;;;;;;5.47;2.22;;;15.60;57.70;;;;;;4982921;28;20045;-73
2022/05/11 05:40:22;;;;;;;6.05;1.25;;;15.60;57.70;;;;;;4995312;28;20399;-75
2022/05/11 05:42:48;;;;;;;5.28;1.70;;;15.60;57.80;;;;;;4965947;28;20255;-76
2022/05/11 05:45:14;;;;;;;7.40;1.70;;;15.60;57.80;;;;;;4992024;28;20038;-76
2022/05/11 05:47:40;;;;;;;3.58;1.35;;;15.60;57.90;;;;;;4974886;28;20124;-76
2022/05/11 05:50:07;;;;;;;3.83;1.70;;;15.60;57.90;;;;;;4982540;28;20031;-76
2022/05/11 05:52:33;;;;;;;3.55;1.80;;;15.60;58.00;;;;;;4983873;28;20109;-75
2022/05/11 05:54:59;;;;;;;4.68;1.95;;;15.60;58.40;;;;;;4971950;28;20524;-74
2022/05/11 05:57:27;;;;;;;8.27;4.13;;;15.70;59.60;;;;;;4982166;28;20084;-74
2022/05/11 05:59:53;;;;;;;9.73;4.88;;;15.80;60.70;;;;;;4986428;28;20046;-76
2022/05/11 06:02:19;;;;;;;8.93;3.03;;;15.90;61.50;;;;;;4991360;28;20064;-76
2022/05/11 06:04:50;;;;;;;6.00;2.83;;;16.00;62.10;;;;;;4986845;28;20065;-75
2022/05/11 06:07:18;;;;;;;4.50;1.92;;;16.10;62.80;;;;;;4992431;28;20058;-76
2022/05/11 06:09:44;;;;;;;6.25;2.08;;;16.30;63.20;;;;;;4967094;28;20126;-76
2022/05/11 06:12:12;;;;;;;7.45;3.70;;;16.40;63.50;;;;;;4965402;28;20543;-75
2022/05/11 06:14:39;;;;;;;9.93;2.72;;;16.50;63.80;;;;;;4980303;28;20036;-76
2022/05/11 06:17:16;;;;;;;6.93;2.20;;;16.70;64.20;;;;;;4986460;28;20045;-76
2022/05/11 06:19:42;;;;;;;10.48;3.35;;;16.80;65.20;;;;;;4981979;28;20038;-76
2022/05/11 06:22:09;;;;;;;8.02;2.00;;;16.90;64.50;;;;;;4965742;28;20473;-75
2022/05/11 06:24:35;;;;;;;9.20;2.75;;;17.00;64.70;;;;;;4989856;28;20026;-74
2022/05/11 06:27:01;;;;;;;5.88;1.83;;;17.10;64.90;;;;;;4965312;28;20027;-75
2022/05/11 06:29:26;;;;;;;8.07;2.83;;;17.20;65.10;;;;;;4967135;28;20405;-75
2022/05/11 06:31:52;;;;;;;5.80;2.70;;;17.30;65.30;;;;;;4970943;28;20034;-73
2022/05/11 06:34:18;;;;;;;6.18;2.22;;;17.40;65.30;;;;;;4963776;28;20050;-74
2022/05/11 06:36:44;;;;;;;5.82;2.13;;;17.40;65.20;;;;;;4967896;28;20030;-74
2022/05/11 06:39:10;;;;;;;6.78;2.38;;;17.40;65.00;;;;;;4977335;28;20420;-72
2022/05/11 06:41:36;;;;;;;4.85;2.00;;;17.40;64.90;;;;;;4977403;28;20430;-75
2022/05/11 06:44:03;;;;;;;4.43;2.10;;;17.40;64.80;;;;;;4979610;28;20026;-75
2022/05/11 06:46:32;;;;;;;7.38;2.13;;;17.30;64.50;;;;;;4986550;28;20287;-75
2022/05/11 06:48:57;;;;;;;7.60;2.80;;;17.20;64.20;;;;;;4991132;28;20540;-74
2022/05/11 06:51:23;;;;;;;7.15;2.55;;;17.30;64.40;;;;;;4985654;28;20030;-74
2022/05/11 06:59:25;;;;;;;6.28;2.28;;;17.10;63.90;;;;;;4987165;28;20046;-75
2022/05/11 07:01:54;;;;;;;7.22;1.95;;;17.10;63.70;;;;;;4986985;28;20061;-75
2022/05/11 07:04:23;;;;;;;10.15;2.78;;;17.10;63.70;;;;;;4951943;28;20041;-75
2022/05/11 07:06:52;;;;;;;7.18;2.92;;;17.10;63.70;;;;;;4989270;28;20126;-75
2022/05/11 07:09:19;;;;;;;8.13;2.92;;;17.10;63.60;;;;;;4988903;28;20030;-74
2022/05/11 07:14:29;;;;;;;6.25;2.08;;;17.10;63.20;;;;;;4978894;28;20033;-73
2022/05/11 07:16:56;;;;;;;4.82;1.75;;;17.20;63.20;;;;;;4988136;28;20031;-73
2022/05/11 07:19:23;;;;;;;4.93;1.98;;;17.20;63.10;;;;;;4987494;28;20026;-73
2022/05/11 07:21:50;;;;;;;6.38;2.95;;;17.20;63.00;;;;;;4977612;28;20038;-73
2022/05/11 07:24:16;;;;;;;6.72;2.30;;;17.20;62.80;;;;;;4996445;28;20033;-73
2022/05/11 07:26:42;;;;;;;5.65;2.03;;;17.20;62.70;;;;;;4977486;28;20392;-73
2022/05/11 07:29:08;;;;;;;9.43;2.88;;;17.20;62.70;;;;;;4985750;28;20030;-73
2022/05/11 07:31:34;;;;;;;8.70;1.90;;;17.30;62.80;;;;;;4975271;28;20045;-74
2022/05/11 07:34:00;;;;;;;6.80;2.30;;;17.30;62.70;;;;;;4978315;28;20054;-74
2022/05/11 07:36:26;;;;;;;8.68;2.55;;;17.30;62.60;;;;;;4980519;28;20481;-75
2022/05/11 07:38:52;;;;;;;6.95;2.13;;;17.30;63.10;;;;;;4982260;28;20033;-74
2022/05/11 07:41:18;;;;;;;6.68;2.00;;;17.30;62.50;;;;;;4992032;28;20069;-74
2022/05/11 07:43:44;;;;;;;7.95;2.00;;;17.30;62.40;;;;;;4981085;28;20035;-74
2022/05/11 07:46:10;;;;;;;10.45;2.60;;;17.30;62.40;;;;;;4978224;28;20133;-74
2022/05/11 07:48:36;;;;;;;4.15;2.22;;;17.30;62.30;;;;;;4980230;28;20030;-73
2022/05/11 07:51:03;;;;;;;10.18;2.38;;;17.30;62.30;;;;;;4983214;28;20118;-73
2022/05/11 07:53:29;;;;;;;6.20;2.55;;;17.40;62.30;;;;;;4983720;28;20030;-73
2022/05/11 08:01:24;;;;;;;6.20;1.95;;;17.40;62.20;;;;;;4984730;28;20137;-73
2022/05/11 08:03:50;;;;;;;7.57;2.45;;;17.40;62.10;;;;;;4966709;28;20034;-73
2022/05/11 08:06:16;;;;;;;5.88;2.08;;;17.40;62.10;;;;;;4974204;28;20359;-73
2022/05/11 08:08:45;;;;;;;6.07;2.58;;;17.50;62.10;;;;;;4988061;28;20037;-73
2022/05/11 08:11:11;;;;;;;7.35;2.63;;;17.50;62.10;;;;;;4975455;28;20035;-73
2022/05/11 08:13:37;;;;;;;4.80;2.03;;;17.50;62.00;;;;;;4975981;28;20101;-73
2022/05/11 08:16:03;;;;;;;8.90;3.22;;;17.50;61.90;;;;;;4983235;28;20062;-73
2022/05/11 08:18:29;;;;;;;10.52;3.42;;;17.50;61.90;;;;;;4989834;28;20507;-73
2022/05/11 08:20:55;;;;;;;7.45;2.35;;;17.60;62.00;;;;;;4987813;28;20050;-73
2022/05/11 08:23:21;;;;;;;5.03;1.75;;;17.60;61.90;;;;;;4984695;28;20030;-72
2022/05/11 08:25:49;;;;;;;8.13;2.70;;;17.60;61.90;;;;;;4981416;28;20805;-73
2022/05/11 08:28:21;;;;;;;7.40;3.00;;;17.60;61.80;;;;;;4986222;28;20023;-72
2022/05/11 08:33:35;;;;;;;8.00;3.05;;;17.60;61.70;;;;;;4962393;28;20039;-73
2022/05/11 08:36:07;;;;;;;7.55;2.47;;;17.60;61.70;;;;;;4992509;28;20037;-73
2022/05/11 08:38:38;;;;;;;6.10;2.03;;;17.60;61.70;;;;;;4991149;28;20044;-73
2022/05/11 08:41:14;;;;;;;6.82;2.22;;;17.70;61.80;;;;;;5001109;28;20043;-74
2022/05/11 08:43:42;;;;;;;9.75;2.30;;;17.70;61.70;;;;;;4998462;28;20042;-73
2022/05/11 08:46:24;;;;;;;6.75;1.73;;;17.70;61.70;;;;;;4996816;28;20037;-73
2022/05/11 08:49:04;;;;;;;7.35;2.30;;;17.70;61.70;;;;;;4998150;28;20034;-73
2022/05/11 08:51:45;;;;;;;7.90;2.25;;;17.70;61.70;;;;;;4983006;28;20060;-72
2022/05/11 08:54:20;;;;;;;9.00;2.33;;;17.60;61.50;;;;;;4985060;28;20027;-72
2022/05/11 08:56:48;;;;;;;6.75;2.17;;;17.70;61.70;;;;;;4966252;28;20430;-72
2022/05/11 08:59:21;;;;;;;8.00;2.67;;;17.70;61.70;;;;;;4987370;28;20093;-72
2022/05/11 09:02:20;;;;;;;6.50;2.38;;;17.70;61.70;;;;;;4988924;28;20044;-73
2022/05/11 09:04:51;;;;;;;6.63;2.58;;;17.70;61.60;;;;;;4966283;28;20070;-73
2022/05/11 09:07:18;;;;;;;8.50;2.83;;;17.80;61.70;;;;;;4995841;28;20072;-72
2022/05/11 09:09:44;;;;;;;4.18;2.00;;;17.80;61.60;;;;;;4978951;28;20053;-74
2022/05/11 09:12:11;;;;;;;10.02;3.15;;;17.80;61.60;;;;;;4986379;28;20525;-73
2022/05/11 09:14:41;;;;;;;5.57;2.03;;;17.80;61.60;;;;;;4990188;28;20089;-73
2022/05/11 09:17:25;;;;;;;7.35;2.55;;;17.80;61.50;;;;;;4987245;28;20082;-73
2022/05/11 09:20:01;;;;;;;7.03;2.28;;;17.90;61.70;;;;;;4998926;28;20048;-73
2022/05/11 09:22:29;;;;;;;7.18;2.20;;;18.00;61.80;;;;;;4985555;28;20162;-73
2022/05/11 09:24:59;;;;;;;6.45;2.08;;;18.00;61.60;;;;;;4978176;28;20018;-73
2022/05/11 09:27:29;;;;;;;8.30;2.42;;;18.10;61.70;;;;;;4990739;28;20120;-73
2022/05/11 09:30:03;;;;;;;5.40;2.28;;;18.10;61.60;;;;;;4995438;28;20037;-73
2022/05/11 09:32:42;;;;;;;6.55;2.72;;;18.20;61.60;;;;;;4988246;28;20465;-73
2022/05/11 09:35:37;;;;;;;8.13;1.92;;;18.20;61.60;;;;;;4984511;28;20069;-74
2022/05/11 09:38:05;;;;;;;11.57;1.90;;;18.30;61.70;;;;;;4981253;28;20037;-74
2022/05/11 09:40:53;;;;;;;7.25;2.38;;;18.40;61.70;;;;;;4983867;28;20053;-74
2022/05/11 09:43:38;;;;;;;5.95;2.53;;;18.40;61.60;;;;;;4995745;28;20132;-74
2022/05/11 09:46:26;;;;;;;4.68;1.80;;;18.50;61.70;;;;;;4984254;28;20357;-73
2022/05/11 09:49:21;;;;;;;7.70;2.40;;;18.60;61.80;;;;;;4981607;28;20029;-74
2022/05/11 09:51:50;;;;;;;7.38;2.53;;;18.60;61.70;;;;;;4963641;28;20505;-73
2022/05/11 09:54:38;;;;;;;5.85;2.58;;;18.60;61.60;;;;;;4988935;28;20414;-74
2022/05/11 09:57:17;;;;;;;5.78;2.00;;;18.70;61.80;;;;;;4990896;28;20057;-73
2022/05/11 09:59:49;;;;;;;5.88;1.70;;;18.60;61.60;;;;;;4986958;28;20545;-73
2022/05/11 10:02:36;;;;;;;4.78;1.92;;;18.70;61.80;;;;;;4993066;28;20065;-73
2022/05/11 10:05:30;;;;;;;9.70;2.20;;;18.70;61.80;;;;;;4994223;28;20963;-73
2022/05/11 10:08:11;;;;;;;6.10;2.10;;;18.70;61.80;;;;;;4992403;28;20034;-74
2022/05/11 10:10:45;;;;;;;4.97;1.63;;;18.70;61.80;;;;;;4995497;28;20500;-74
2022/05/11 10:13:35;;;;;;;5.82;2.28;;;18.70;61.80;;;;;;4986830;28;20045;-73
2022/05/11 10:22:20;;;;;;;4.28;1.50;;;18.80;62.00;;;;;;4968534;28;20061;-73
2022/05/11 10:25:15;;;;;;;3.78;1.65;;;18.80;61.90;;;;;;4990809;28;20085;-73
2022/05/11 10:27:47;;;;;;;4.10;1.75;;;18.80;61.80;;;;;;4938240;28;20312;-73
2022/05/11 10:30:16;;;;;;;5.80;2.00;;;18.90;61.90;;;;;;4988774;28;20137;-73
2022/05/11 10:32:51;;;;;;;6.65;2.25;;;18.90;61.90;;;;;;4982435;28;20047;-73
2022/05/11 10:35:57;;;;;;;6.43;2.00;;;18.80;61.90;;;;;;4980472;28;20031;-73
2022/05/11 10:38:51;;;;;;;6.45;1.75;;;18.80;62.00;;;;;;4979829;28;20037;-73
2022/05/11 10:41:39;;;;;;;5.88;1.65;;;18.90;62.10;;;;;;4981477;28;20257;-73
2022/05/11 10:44:14;;;;;;;5.00;1.88;;;18.90;62.00;;;;;;4982544;28;20617;-73
2022/05/11 10:46:55;;;;;;;5.10;1.83;;;18.90;61.90;;;;;;4983310;28;20050;-74
2022/05/11 10:49:46;;;;;;;4.90;2.08;;;19.00;62.10;;;;;;4988687;28;20031;-73
2022/05/11 10:52:51;;;;;;;4.90;1.92;;;19.00;62.00;;;;;;4981633;28;20037;-74
2022/05/11 10:55:54;;;;;;;4.45;1.30;;;19.10;62.20;;;;;;4975606;28;20030;-73
2022/05/11 10:58:57;;;;;;;3.70;1.37;;;19.20;62.30;;;;;;4981056;28;20041;-74
2022/05/11 11:01:25;;;;;;;;;;;19.30;62.10;;;;;;4982181;28;20042;-73
2022/05/11 11:04:06;;;;;;;2.67;1.38;;;19.40;61.90;;;;;;4965532;28;19914;-73
2022/05/11 11:09:28;;;;;;;3.33;1.75;;;19.50;62.00;;;;;;4993515;28;20040;-73
2022/05/11 11:12:12;;;;;;;4.47;1.70;;;19.60;62.00;;;;;;4966466;28;20054;-73
2022/05/11 11:14:43;;;;;;;3.10;1.70;;;19.70;62.10;;;;;;4953374;28;20590;-75
2022/05/11 11:17:15;;;;;;;3.28;1.40;;;19.70;62.00;;;;;;4978428;28;20035;-74
2022/05/11 11:19:44;;;;;;;3.38;1.75;;;19.70;62.10;;;;;;4981049;28;20061;-73
2022/05/11 11:22:10;;;;;;;9.20;1.90;;;19.70;62.20;;;;;;4985540;28;20133;-72
2022/05/11 11:24:38;;;;;;;3.28;1.52;;;19.70;62.30;;;;;;4976242;28;20511;-72
2022/05/11 11:27:06;;;;;;;2.80;1.38;;;19.70;62.30;;;;;;4978816;28;20144;-72
2022/05/11 11:30:09;;;;;;;2.63;1.35;;;19.80;62.30;;;;;;4991500;28;20509;-72
2022/05/11 11:33:11;;;;;;;4.20;1.83;;;20.00;62.50;;;;;;4986702;28;20049;-71
2022/05/11 11:35:56;;;;;;;3.88;1.38;;;20.20;62.30;;;;;;4986870;28;20037;-73
2022/05/11 11:38:48;;;;;;;4.47;1.40;;;20.50;62.40;;;;;;4975644;28;20062;-72
2022/05/11 11:41:20;;;;;;;2.03;1.15;;;20.60;62.20;;;;;;4968630;28;20057;-72
2022/05/11 11:43:52;;;;;;;1.45;0.63;;;20.80;62.10;;;;;;4974026;28;20127;-73
2022/05/11 11:46:42;;;;;;;1.90;0.95;;;21.00;62.10;;;;;;4984929;28;20057;-73
2022/05/11 11:49:21;;;;;;;2.97;1.30;;;21.30;62.10;;;;;;4981888;28;20096;-73
2022/05/11 11:52:08;;;;;;;4.25;1.40;;;21.50;61.90;;;;;;4966243;28;20531;-76
2022/05/11 11:54:37;;;;;;;2.63;1.45;;;21.70;62.40;;;;;;4977942;28;20031;-76
2022/05/11 11:57:09;;;;;;;5.13;1.60;;;21.70;62.20;;;;;;4991810;28;20049;-72
2022/05/11 11:59:40;;;;;;;;;;;21.90;62.60;;;;;;4993459;28;20121;-73
2022/05/11 12:02:23;;;;;;;2.72;1.25;;;22.00;62.50;;;;;;4982839;28;20339;-74
2022/05/11 12:05:04;;;;;;;4.15;1.02;;;22.20;62.50;;;;;;4981947;28;20718;-73
2022/05/11 12:16:18;;;;;;;4.57;1.05;;;22.60;62.10;;;;;;4987833;28;20121;-73
2022/05/11 12:18:46;;;;;;;4.47;1.17;;;22.50;61.80;;;;;;4967064;28;20053;-74
2022/05/11 12:21:34;;;;;;;3.33;1.25;;;22.60;61.90;;;;;;4976861;28;20423;-73
2022/05/11 12:24:03;;;;;;;3.38;0.95;;;22.60;61.60;;;;;;4983500;28;20145;-72
2022/05/11 12:26:36;;;;;;;4.50;1.00;;;22.60;61.40;;;;;;4987407;28;20046;-73
2022/05/11 12:31:56;;;;;;;4.05;1.00;;;22.50;61.30;;;;;;4980270;28;19949;-74
2022/05/11 12:34:24;;;;;;;2.90;1.13;;;22.50;61.40;;;;;;4982479;28;20034;-74
2022/05/11 12:36:53;;;;;;;4.00;1.00;;;22.40;61.80;;;;;;4970534;28;20532;-74
2022/05/11 12:39:33;;;;;;;2.67;1.30;;;22.40;61.10;;;;;;4983492;28;20034;-73
2022/05/11 12:42:00;;;;;;;5.75;0.95;;;22.50;61.00;;;;;;4976749;28;20072;-74
2022/05/11 12:44:36;;;;;;;2.55;1.05;;;22.70;61.10;;;;;;4983314;28;20409;-75
2022/05/11 12:47:05;;;;;;;3.38;1.33;;;23.00;60.90;;;;;;4968726;28;20046;-75
2022/05/11 12:49:31;;;;;;;5.25;1.45;;;23.60;61.00;;;;;;4985478;28;20037;-74
2022/05/11 12:52:05;;;;;;;5.00;1.05;;;24.00;61.10;;;;;;4980030;28;20042;-74
2022/05/11 12:54:32;;;;;;;2.38;0.90;;;24.20;60.10;;;;;;4978438;28;20029;-73
2022/05/11 12:57:07;;;;;;;3.95;1.00;;;24.20;59.90;;;;;;4987402;28;20062;-74
2022/05/11 12:59:35;;;;;;;3.78;1.17;;;24.20;59.70;;;;;;4981647;28;20505;-74
2022/05/11 13:02:21;;;;;;;2.97;1.33;;;24.30;59.80;;;;;;4984888;28;20057;-75
2022/05/11 13:04:53;;;;;;;4.30;1.48;;;24.40;59.50;;;;;;4969918;28;20167;-74
2022/05/11 13:07:29;;;;;;;3.50;0.97;;;24.50;59.50;;;;;;4983680;28;20034;-75
2022/05/11 13:09:59;;;;;;;2.53;1.17;;;24.60;59.40;;;;;;4983369;28;20035;-75
2022/05/11 13:12:26;;;;;;;3.55;1.10;;;24.70;59.40;;;;;;4985863;28;20030;-75
2022/05/11 13:14:55;;;;;;;3.45;1.15;;;24.90;59.20;;;;;;4982086;28;20030;-74
2022/05/11 13:17:30;;;;;;;4.18;1.35;;;25.00;58.90;;;;;;4974346;28;20154;-75
2022/05/11 13:20:06;;;;;;;4.20;1.10;;;25.10;58.60;;;;;;4979015;28;20043;-74
2022/05/11 13:22:32;;;;;;;4.82;1.55;;;25.20;58.50;;;;;;4983407;28;20061;-75
2022/05/11 13:25:01;;;;;;;2.58;0.80;;;25.50;58.30;;;;;;4965505;28;20030;-75
2022/05/11 13:27:43;;;;;;;4.72;1.42;;;25.90;57.70;;;;;;4984169;28;20194;-75
2022/05/11 13:30:11;;;;;;;3.30;1.02;;;26.30;57.10;;;;;;4984325;28;20038;-73
2022/05/11 13:32:47;;;;;;;3.90;1.05;;;26.80;56.40;;;;;;4977422;28;20628;-75
2022/05/11 13:35:30;;;;;;;4.43;1.45;;;27.20;55.50;;;;;;4978548;28;20030;-75
2022/05/11 13:38:10;;;;;;;3.67;1.45;;;27.40;54.80;;;;;;4989252;28;20038;-75
2022/05/11 13:40:37;;;;;;;5.35;1.15;;;27.40;54.50;;;;;;4981005;28;20081;-75
2022/05/11 13:43:23;;;;;;;2.92;0.80;;;27.50;54.70;;;;;;4983834;28;20041;-75
2022/05/11 13:46:10;;;;;;;5.93;1.75;;;27.70;54.00;;;;;;4984979;28;20045;-75
2022/05/11 13:48:42;;;;;;;2.63;0.73;;;28.20;53.40;;;;;;4968822;28;20357;-74
2022/05/11 13:51:18;;;;;;;1.58;0.77;;;28.60;52.90;;;;;;4971398;28;20469;-75
2022/05/11 13:53:47;;;;;;;2.13;0.88;;;29.10;52.20;;;;;;4986236;28;20034;-75
2022/05/11 13:56:26;;;;;;;4.82;1.20;;;29.40;51.70;;;;;;4980814;28;20030;-75